Time;durP1;ratioP1;P1;durP2;ratioP2;P2;SDS_P1;SDS_P2;PMS_P1;PMS_P2;Temp;Humidity;BMP_temperature;BMP_pressure;BME280_temperature;BME280_humidity;BME280_pressure;Samples;Min_cycle;Max_cycle;Signal;HPM_P1;HPM_P2
2023/07/16 00:01:41;;;;;;;2.97;2.03;;;;;;;29.98;38.84;99012.78;4927648;29;20064;-75
2023/07/16 00:04:07;;;;;;;3.83;1.80;;;;;;;29.99;38.96;99016.31;4919882;29;20044;-75
2023/07/16 00:06:32;;;;;;;3.63;1.65;;;;;;;29.99;39.42;99017.13;4920198;29;20032;-75
2023/07/16 00:08:59;;;;;;;3.15;1.90;;;;;;;29.97;38.96;99013.84;4937438;29;20039;-75
2023/07/16 00:11:24;;;;;;;2.93;1.90;;;;;;;29.94;39.28;99017.81;4941282;29;20055;-75
2023/07/16 00:13:50;;;;;;;3.72;1.80;;;;;;;29.93;39.04;99010.78;4938964;29;20075;-75
2023/07/16 00:16:15;;;;;;;3.40;1.73;;;;;;;29.92;39.28;99003.78;4939347;29;20031;-75
2023/07/16 00:18:43;;;;;;;3.42;1.70;;;;;;;29.91;39.52;99001.34;4939789;29;20042;-75
2023/07/16 00:21:09;;;;;;;6.07;2.00;;;;;;;29.88;39.49;99002.63;4939173;29;20027;-75
2023/07/16 00:23:34;;;;;;;4.32;2.00;;;;;;;29.87;39.57;99000.16;4939280;29;20042;-76
2023/07/16 00:26:00;;;;;;;3.08;1.90;;;;;;;29.85;39.50;98996.91;4956296;29;20401;-76
2023/07/16 00:28:25;;;;;;;5.03;2.08;;;;;;;29.80;39.33;98992.22;4939108;29;20098;-76
2023/07/16 00:30:51;;;;;;;4.32;1.95;;;;;;;29.82;39.78;98994.69;4939033;29;20035;-76
2023/07/16 00:33:16;;;;;;;4.88;1.80;;;;;;;29.81;39.29;98995.72;4939083;29;20031;-75
2023/07/16 00:35:51;;;;;;;4.00;2.15;;;;;;;29.74;39.58;98985.88;4923163;29;20062;-75
2023/07/16 00:38:20;;;;;;;3.40;2.00;;;;;;;29.76;39.27;98999.94;4924319;29;20114;-76
2023/07/16 00:40:48;;;;;;;4.40;1.88;;;;;;;29.74;39.49;98993.94;4923107;29;20126;-75
2023/07/16 00:43:14;;;;;;;4.10;2.10;;;;;;;29.72;39.33;98993.38;4938868;29;20038;-75
2023/07/16 00:45:39;;;;;;;3.00;1.80;;;;;;;29.69;39.37;98983.09;4922976;29;20043;-75
2023/07/16 00:48:06;;;;;;;3.33;1.85;;;;;;;29.66;39.29;98994.31;4938792;29;20044;-75
2023/07/16 00:50:33;;;;;;;4.55;1.95;;;;;;;29.65;39.48;98990.00;4907086;29;20035;-75
2023/07/16 00:53:02;;;;;;;3.80;1.90;;;;;;;29.62;39.75;98993.16;4938945;29;20499;-75
2023/07/16 00:55:29;;;;;;;3.97;1.88;;;;;;;29.58;39.80;98995.50;4938710;29;20406;-75
2023/07/16 00:57:57;;;;;;;4.45;2.00;;;;;;;29.59;39.84;98999.03;4954480;29;20414;-75
2023/07/16 01:00:22;;;;;;;4.60;1.95;;;;;;;29.53;39.81;98983.81;4955492;29;20027;-75
2023/07/16 01:02:48;;;;;;;3.80;2.00;;;;;;;29.54;39.67;98990.81;4938229;29;20514;-75
2023/07/16 01:05:13;;;;;;;5.35;2.03;;;;;;;29.54;39.67;98990.81;4938621;29;20027;-75
2023/07/16 01:07:39;;;;;;;4.35;2.15;;;;;;;29.52;39.99;98996.44;4938533;29;20525;-75
2023/07/16 01:10:05;;;;;;;3.80;2.00;;;;;;;29.50;39.93;98984.28;4938190;29;20042;-76
2023/07/16 01:12:30;;;;;;;5.35;2.00;;;;;;;29.47;39.57;98982.06;4938190;29;20058;-75
2023/07/16 01:14:56;;;;;;;2.88;1.98;;;;;;;29.46;40.13;98983.94;4954321;29;20032;-75
2023/07/16 01:17:21;;;;;;;2.60;1.90;;;;;;;29.41;40.06;98975.75;4922515;29;20122;-75
2023/07/16 01:19:47;;;;;;;4.10;1.90;;;;;;;29.41;39.77;98981.13;4937351;29;20055;-75
2023/07/16 01:22:36;;;;;;;3.15;2.00;;;;;;;29.38;40.17;98977.06;4954255;29;20035;-76
2023/07/16 01:25:28;;;;;;;4.00;2.17;;;;;;;29.34;40.35;98978.56;4954040;29;20114;-76
2023/07/16 01:27:59;;;;;;;2.78;2.00;;;;;;;29.29;40.32;98972.22;4923680;29;20529;-75
2023/07/16 01:30:25;;;;;;;2.78;1.85;;;;;;;29.28;40.50;98971.41;4922061;29;20035;-76
2023/07/16 01:32:50;;;;;;;4.68;2.22;;;;;;;29.26;40.11;98968.16;4922080;29;20054;-75
2023/07/16 01:35:16;;;;;;;7.10;2.10;;;;;;;29.24;40.45;98970.28;4937948;29;20043;-77
2023/07/16 01:37:41;;;;;;;3.45;2.13;;;;;;;29.22;40.41;98978.56;4938267;29;20471;-77
2023/07/16 01:40:08;;;;;;;4.20;1.95;;;;;;;29.18;40.37;98968.47;4922260;29;20034;-76
2023/07/16 01:42:34;;;;;;;3.57;2.10;;;;;;;29.18;40.45;98979.22;4922603;29;20035;-77
2023/07/16 01:44:59;;;;;;;3.13;2.10;;;;;;;29.17;40.56;98985.66;4922395;29;20145;-76
2023/07/16 01:47:50;;;;;;;5.43;1.90;;;;;;;29.16;40.69;98973.25;4938115;29;20062;-76
2023/07/16 01:50:15;;;;;;;3.47;1.98;;;;;;;29.15;40.48;98983.19;4922983;29;20052;-76
2023/07/16 01:52:41;;;;;;;2.97;1.80;;;;;;;29.10;40.51;98971.50;4938204;29;20463;-76
2023/07/16 01:55:07;;;;;;;3.22;1.88;;;;;;;29.12;40.26;98977.47;4937828;29;20039;-76
2023/07/16 01:57:32;;;;;;;4.05;1.90;;;;;;;29.09;40.51;98984.13;4955002;29;20027;-77
2023/07/16 01:59:58;;;;;;;4.07;2.13;;;;;;;29.05;40.36;98975.72;4938005;29;20402;-76
2023/07/16 02:02:23;;;;;;;3.03;1.80;;;;;;;29.05;40.78;98985.66;4918441;29;20070;-76
2023/07/16 02:04:49;;;;;;;3.92;1.95;;;;;;;29.01;40.54;98984.47;4934581;29;20476;-75
2023/07/16 02:07:14;;;;;;;3.50;1.90;;;;;;;28.98;40.76;98983.03;4918349;29;20114;-75
2023/07/16 02:09:40;;;;;;;2.95;1.70;;;;;;;28.97;40.84;98981.44;4934487;29;20070;-75
2023/07/16 02:12:06;;;;;;;3.60;2.00;;;;;;;28.92;40.79;98975.91;4934044;29;20396;-76
2023/07/16 02:14:31;;;;;;;2.78;1.80;;;;;;;28.90;40.85;98971.84;4918600;29;20027;-76
2023/07/16 02:16:57;;;;;;;3.00;2.08;;;;;;;28.90;41.03;98974.53;4917913;29;20039;-76
2023/07/16 02:19:23;;;;;;;4.47;2.03;;;;;;;28.90;40.78;98978.00;4933798;29;20036;-76
2023/07/16 02:21:48;;;;;;;3.85;1.83;;;;;;;28.85;40.77;98972.53;4934258;29;20043;-76
2023/07/16 02:24:14;;;;;;;3.65;1.77;;;;;;;28.85;40.92;98977.91;4934358;29;20467;-76
2023/07/16 02:26:39;;;;;;;3.05;1.75;;;;;;;28.80;40.68;98970.53;4933963;29;20082;-76
2023/07/16 02:29:08;;;;;;;4.65;2.00;;;;;;;28.80;40.74;98969.72;4934173;29;20070;-76
2023/07/16 02:31:34;;;;;;;4.18;1.80;;;;;;;28.78;40.67;98972.63;4934022;29;20031;-76
2023/07/16 02:33:59;;;;;;;3.45;1.70;;;;;;;28.79;40.66;98979.63;4935593;29;20049;-76
2023/07/16 02:36:25;;;;;;;2.75;1.80;;;;;;;28.78;40.98;98969.09;4918152;29;20043;-76
2023/07/16 02:38:50;;;;;;;4.75;2.00;;;;;;;28.77;40.71;98978.22;4935055;29;20032;-76
2023/07/16 02:41:16;;;;;;;3.63;1.95;;;;;;;28.74;40.66;98981.38;4934013;29;20035;-76
2023/07/16 02:43:41;;;;;;;4.22;2.03;;;;;;;28.67;40.67;98974.22;4935033;29;20554;-76
2023/07/16 02:46:07;;;;;;;4.85;1.83;;;;;;;28.72;40.87;98984.28;4918258;29;20036;-76
2023/07/16 02:48:32;;;;;;;4.32;1.90;;;;;;;28.72;40.88;98983.47;4902715;29;20086;-76
2023/07/16 02:50:58;;;;;;;4.00;2.03;;;;;;;28.67;40.92;98976.91;4934797;29;20039;-76
2023/07/16 02:53:23;;;;;;;2.60;1.90;;;;;;;28.67;40.77;98992.19;4933571;29;20091;-75
2023/07/16 02:55:49;;;;;;;3.28;1.95;;;;;;;28.67;40.71;98997.56;4933746;29;20036;-75
2023/07/16 02:58:14;;;;;;;3.40;2.10;;;;;;;28.66;40.48;98994.06;4934984;29;20036;-76
2023/07/16 03:00:40;;;;;;;2.55;1.70;;;;;;;28.63;40.34;98985.66;4918029;29;20043;-76
2023/07/16 03:03:05;;;;;;;4.00;1.70;;;;;;;28.65;40.23;98992.44;4918113;29;20051;-76
2023/07/16 03:05:31;;;;;;;3.70;1.98;;;;;;;28.71;40.14;98995.25;4901931;29;20032;-76
2023/07/16 03:07:56;;;;;;;3.28;1.83;;;;;;;28.77;39.86;98995.16;4949685;29;20510;-76
2023/07/16 03:10:22;;;;;;;3.40;1.77;;;;;;;28.92;39.77;98994.72;4934177;29;20032;-76
2023/07/16 03:12:47;;;;;;;4.00;1.92;;;;;;;29.09;39.05;98994.06;4949503;29;20042;-76
2023/07/16 03:15:13;;;;;;;4.63;1.90;;;;;;;29.31;38.90;99002.41;4933523;29;20051;-76
2023/07/16 03:17:38;;;;;;;2.70;1.60;;;;;;;29.54;38.33;98998.88;4933870;29;20407;-75
2023/07/16 03:20:05;;;;;;;6.03;2.10;;;;;;;29.76;37.68;98999.94;4933537;29;20038;-76
2023/07/16 03:22:31;;;;;;;4.80;1.92;;;;;;;29.97;36.99;98992.31;4933667;29;20032;-76
2023/07/16 03:24:56;;;;;;;2.60;1.83;;;;;;;30.27;37.03;98994.00;4933530;29;20558;-75
2023/07/16 03:27:22;;;;;;;4.57;1.85;;;;;;;30.50;36.43;98995.78;4934649;29;20036;-76
2023/07/16 03:29:47;;;;;;;3.10;1.65;;;;;;;30.74;35.56;99001.91;4933484;29;20043;-75
2023/07/16 03:32:13;;;;;;;3.35;1.88;;;;;;;30.92;35.17;99006.22;4933819;29;20102;-75
2023/07/16 03:34:38;;;;;;;4.85;1.70;;;;;;;31.09;34.82;99010.84;4934288;29;20038;-75
2023/07/16 03:37:04;;;;;;;3.42;1.92;;;;;;;31.43;34.39;99005.44;4935055;29;20031;-75
2023/07/16 03:39:29;;;;;;;3.58;1.95;;;;;;;31.77;33.83;99010.78;4934404;29;20550;-75
2023/07/16 03:41:54;;;;;;;6.20;2.00;;;;;;;32.14;33.35;99013.72;4918355;29;20043;-75
2023/07/16 03:44:20;;;;;;;6.20;1.88;;;;;;;32.40;32.81;99009.44;4938246;29;20364;-76
2023/07/16 03:46:45;;;;;;;7.57;2.00;;;;;;;32.94;32.45;99015.91;4936246;29;20079;-77
2023/07/16 03:49:12;;;;;;;3.72;1.70;;;;;;;33.24;31.69;99006.44;4952128;29;20044;-77
2023/07/16 03:51:37;;;;;;;3.40;1.65;;;;;;;33.58;31.31;99015.06;4936724;29;20035;-77
2023/07/16 03:54:03;;;;;;;4.65;1.80;;;;;;;33.88;31.23;99005.50;4937343;29;20035;-77
2023/07/16 03:56:28;;;;;;;4.93;1.85;;;;;;;34.27;30.72;99013.28;4937348;29;20062;-77
2023/07/16 03:58:54;;;;;;;3.83;1.73;;;;;;;34.69;30.13;99014.97;4936400;29;20039;-77
2023/07/16 04:01:19;;;;;;;5.55;1.60;;;;;;;35.08;29.37;99011.78;4939517;29;20231;-78
2023/07/16 04:03:45;;;;;;;3.50;1.83;;;;;;;35.47;28.84;99013.09;4957135;29;20443;-77
2023/07/16 04:06:10;;;;;;;2.72;1.70;;;;;;;35.94;27.95;99008.38;4955442;29;20043;-77
2023/07/16 04:08:36;;;;;;;2.13;1.55;;;;;;;36.37;27.84;99008.75;4922861;29;20047;-77
2023/07/16 04:11:05;;;;;;;5.93;1.63;;;;;;;36.80;27.27;99016.38;4939270;29;20031;-77
2023/07/16 04:13:30;;;;;;;6.55;1.50;;;;;;;37.22;26.84;99023.13;4939293;29;20027;-78
2023/07/16 04:15:57;;;;;;;2.85;1.40;;;;;;;37.68;25.92;99019.94;4956383;29;20410;-79
2023/07/16 04:18:23;;;;;;;2.78;1.80;;;;;;;38.07;25.95;99018.16;4939371;29;20042;-79
2023/07/16 04:20:48;;;;;;;4.72;1.60;;;;;;;38.44;25.73;99020.09;4939326;29;20039;-78
2023/07/16 04:23:14;;;;;;;3.55;1.83;;;;;;;38.86;24.99;99023.88;4956175;29;20038;-79
2023/07/16 04:25:39;;;;;;;4.65;1.90;;;;;;;39.26;24.57;99028.97;4956090;29;20099;-79
2023/07/16 04:28:05;;;;;;;4.05;1.50;;;;;;;39.70;23.98;99024.09;4954906;29;20062;-76
2023/07/16 04:30:30;;;;;;;4.57;1.58;;;;;;;40.01;23.55;99026.22;4954812;29;20474;-77
2023/07/16 04:32:55;;;;;;;5.28;1.70;;;;;;;40.31;23.11;99025.56;4938976;29;20028;-77
2023/07/16 04:35:21;;;;;;;2.28;1.50;;;;;;;40.71;22.95;99027.72;4956160;29;20031;-77
2023/07/16 04:37:46;;;;;;;3.53;1.63;;;;;;;41.09;22.21;99019.13;4956025;29;20042;-77
2023/07/16 04:40:12;;;;;;;4.85;1.98;;;;;;;41.47;21.68;99015.16;4955939;29;20108;-78
2023/07/16 04:42:37;;;;;;;3.22;1.63;;;;;;;41.87;21.40;99020.63;4938678;29;20118;-77
2023/07/16 04:45:04;;;;;;;3.42;1.65;;;;;;;42.29;20.91;99018.31;4955622;29;20067;-77
2023/07/16 04:47:29;;;;;;;3.47;1.50;;;;;;;42.66;20.52;99027.84;4923202;29;20035;-77
2023/07/16 04:49:55;;;;;;;5.53;1.80;;;;;;;43.08;19.96;99029.28;4955983;29;20471;-77
2023/07/16 04:52:20;;;;;;;6.47;1.60;;;;;;;43.48;19.75;99026.28;4954494;28;20038;-77
2023/07/16 04:54:46;;;;;;;3.10;1.57;;;;;;;43.86;19.41;99036.47;4959943;29;20038;-77
2023/07/16 04:57:11;;;;;;;4.67;1.70;;;;;;;44.23;19.14;99029.31;4971882;29;20139;-77
2023/07/16 04:59:37;;;;;;;4.07;1.60;;;;;;;44.56;18.46;99034.03;4971038;29;20031;-77
2023/07/16 05:02:05;;;;;;;8.27;1.70;;;;;;;44.78;18.18;99034.88;4962346;29;20056;-78
2023/07/16 05:04:30;;;;;;;5.00;1.60;;;;;;;45.25;18.24;99036.53;4922752;29;20090;-78
2023/07/16 05:06:56;;;;;;;4.60;1.53;;;;;;;45.47;17.59;99038.88;4955721;29;20035;-77
2023/07/16 05:09:22;;;;;;;4.73;1.37;;;;;;;45.00;18.25;99038.41;4955584;29;20414;-81
2023/07/16 05:11:47;;;;;;;;;;;;;;;44.06;19.04;99043.13;4923196;29;20383;-81
2023/07/16 05:14:13;;;;;;;4.30;1.47;;;;;;;44.34;18.87;99035.19;4954227;29;19970;-82
2023/07/16 05:16:38;;;;;;;6.43;1.70;;;;;;;45.00;18.00;99049.44;4955461;29;20038;-83
2023/07/16 05:19:04;;;;;;;15.63;2.17;;;;;;;45.44;17.92;99030.50;4922091;29;20454;-88
2023/07/16 05:21:29;;;;;;;5.27;1.53;;;;;;;45.81;17.07;99045.09;4954879;29;20035;-88
2023/07/16 05:23:55;;;;;;;6.73;1.50;;;;;;;45.40;17.40;99040.56;4956055;29;20078;-85
2023/07/16 05:26:20;;;;;;;11.17;1.70;;;;;;;46.30;16.80;99043.44;4922458;29;20067;-85
2023/07/16 05:28:47;;;;;;;6.70;1.70;;;;;;;46.79;16.12;99037.75;4954988;29;20483;-82
2023/07/16 05:31:12;;;;;;;3.63;1.60;;;;;;;47.18;16.09;99040.00;4920945;29;20042;-82
2023/07/16 05:33:38;;;;;;;4.40;1.63;;;;;;;47.61;15.05;99041.88;4937671;29;20031;-86
2023/07/16 05:36:04;;;;;;;3.27;1.60;;;;;;;47.89;14.78;99046.50;4946157;29;20482;-80
2023/07/16 05:38:29;;;;;;;4.10;1.70;;;;;;;48.13;14.34;99039.94;4938165;29;20086;-80
2023/07/16 05:41:00;;;;;;;5.97;1.80;;;;;;;48.32;14.62;99043.91;4955013;29;20329;-82
2023/07/16 05:43:26;;;;;;;5.78;1.67;;;;;;;48.53;14.21;99046.34;4918998;29;20487;-81
2023/07/16 05:45:51;;;;;;;4.53;1.67;;;;;;;48.76;13.85;99054.72;4918945;29;20043;-82
2023/07/16 05:48:17;;;;;;;3.27;1.43;;;;;;;48.92;13.49;99051.88;4934907;29;20024;-83
2023/07/16 05:50:47;;;;;;;2.72;1.33;;;;;;;49.03;13.41;99063.94;4934729;29;20046;-81
2023/07/16 05:53:13;;;;;;;2.70;1.40;;;;;;;49.07;13.55;99058.47;4918650;29;20480;-79
2023/07/16 05:55:42;;;;;;;6.63;1.63;;;;;;;49.11;11.74;99061.28;4941743;29;20050;-84
2023/07/16 05:58:08;;;;;;;9.73;1.52;;;;;;;49.05;11.51;99063.56;4927364;29;20043;-80
2023/07/16 06:00:36;;;;;;;6.63;1.42;;;;;;;48.92;11.76;99062.94;4936532;29;20035;-91
2023/07/16 06:03:02;;;;;;;5.97;1.40;;;;;;;48.99;12.05;99068.59;4898276;29;20048;-76
2023/07/16 06:05:32;;;;;;;5.60;1.50;;;;;;;49.12;12.22;99060.13;4904011;29;20092;-81
2023/07/16 06:07:57;;;;;;;5.38;1.15;;;;;;;49.34;12.37;99066.88;4905450;29;20511;-81
2023/07/16 06:10:23;;;;;;;5.78;1.60;;;;;;;49.42;11.83;99057.50;4906182;29;20028;-81
2023/07/16 06:12:48;;;;;;;5.40;1.30;;;;;;;49.51;12.15;99058.06;4903659;29;20047;-79
2023/07/16 06:15:14;;;;;;;3.67;1.10;;;;;;;49.50;12.56;99061.22;4912777;29;20040;-81
2023/07/16 06:17:39;;;;;;;4.93;1.30;;;;;;;49.40;12.00;99063.41;4913732;29;20300;-80
2023/07/16 06:20:07;;;;;;;6.38;1.45;;;;;;;49.35;12.19;99066.50;4913857;29;20555;-83
2023/07/16 06:22:32;;;;;;;3.38;1.40;;;;;;;49.36;12.43;99070.06;4894778;29;20052;-83
2023/07/16 06:24:59;;;;;;;6.18;1.50;;;;;;;49.40;12.50;99066.19;4912881;29;20122;-80
2023/07/16 06:27:24;;;;;;;5.10;1.55;;;;;;;49.39;12.49;99061.00;4897760;29;20554;-83
2023/07/16 06:29:50;;;;;;;3.55;1.40;;;;;;;49.24;12.71;99068.28;4929491;29;20036;-78
2023/07/16 06:32:15;;;;;;;5.00;1.60;;;;;;;49.26;12.23;99065.94;4913462;29;20036;-80
2023/07/16 06:34:41;;;;;;;4.88;1.70;;;;;;;49.25;12.59;99069.91;4929922;29;20284;-79
2023/07/16 06:37:06;;;;;;;7.07;1.60;;;;;;;49.18;12.66;99064.22;4912564;29;20522;-77
2023/07/16 06:39:33;;;;;;;6.70;1.80;;;;;;;49.11;12.85;99064.06;4906479;29;20024;-81
2023/07/16 06:42:00;;;;;;;3.35;1.23;;;;;;;49.19;13.11;99065.84;4903654;29;20368;-84
2023/07/16 06:44:26;;;;;;;5.13;1.45;;;;;;;49.12;12.89;99060.91;4863925;29;20084;-80
2023/07/16 06:46:51;;;;;;;5.90;1.57;;;;;;;49.20;12.83;99065.47;4904004;29;20143;-76
2023/07/16 06:49:17;;;;;;;5.68;1.60;;;;;;;49.19;12.84;99060.28;4890890;29;20124;-75
2023/07/16 06:51:42;;;;;;;9.03;1.73;;;;;;;49.07;13.20;99056.50;4876370;29;20052;-77
2023/07/16 06:54:08;;;;;;;5.13;1.80;;;;;;;48.98;13.50;99063.44;4875141;29;20135;-77
2023/07/16 06:56:33;;;;;;;5.23;1.60;;;;;;;49.06;13.45;99054.91;4886843;29;20312;-76
2023/07/16 06:58:59;;;;;;;2.83;1.67;;;;;;;48.98;13.38;99061.47;4906605;29;20499;-77
2023/07/16 07:01:27;;;;;;;4.30;1.70;;;;;;;48.86;13.30;99054.13;4916060;29;20063;-75
2023/07/16 07:03:53;;;;;;;4.05;1.50;;;;;;;48.86;13.70;99056.09;4913859;29;20117;-74
2023/07/16 07:06:19;;;;;;;7.28;1.75;;;;;;;48.77;13.51;99053.53;4915544;29;20432;-75
2023/07/16 07:08:44;;;;;;;5.93;1.90;;;;;;;48.68;13.47;99055.72;4913346;29;20035;-76
2023/07/16 07:11:09;;;;;;;3.70;1.70;;;;;;;48.57;13.30;99061.06;4917305;29;20054;-77
2023/07/16 07:13:35;;;;;;;4.47;1.50;;;;;;;48.49;13.39;99059.28;4916002;29;20118;-77
2023/07/16 07:16:00;;;;;;;3.23;1.90;;;;;;;48.38;13.62;99056.28;4927928;29;20031;-75
2023/07/16 07:18:26;;;;;;;6.50;1.83;;;;;;;48.31;13.81;99056.13;4938064;29;20039;-76
2023/07/16 07:20:52;;;;;;;3.93;1.60;;;;;;;48.28;13.33;99052.13;4937136;29;20043;-75
2023/07/16 07:23:17;;;;;;;6.20;1.55;;;;;;;47.90;11.51;99050.84;4922945;29;20043;-75
2023/07/16 07:25:43;;;;;;;4.33;1.70;;;;;;;47.78;12.90;99051.00;4941471;29;20133;-81
2023/07/16 08:40:40;;;;;;;4.57;2.10;;;;;;;45.27;16.92;99025.94;5673192;23;20069;-82
2023/07/16 08:43:06;;;;;;;6.07;2.10;;;;;;;45.21;17.31;99028.13;4917983;29;20048;-79
2023/07/16 08:45:32;;;;;;;5.75;2.22;;;;;;;45.15;16.90;99026.72;4920264;29;20044;-84
2023/07/16 08:47:58;;;;;;;8.97;2.13;;;;;;;45.10;16.84;99022.22;4912695;29;20024;-83
2023/07/16 08:50:23;;;;;;;8.73;2.00;;;;;;;45.03;17.23;99023.97;4941591;29;20031;-82
2023/07/16 08:52:49;;;;;;;4.50;1.80;;;;;;;44.97;16.93;99026.09;4898098;29;20035;-84
2023/07/16 08:55:14;;;;;;;5.77;2.10;;;;;;;44.90;17.21;99025.81;4909403;29;20122;-83
2023/07/16 08:57:40;;;;;;;3.60;2.10;;;;;;;44.80;16.86;99027.88;4928369;29;20110;-86
2023/07/16 09:00:06;;;;;;;6.30;2.23;;;;;;;44.67;16.72;99022.66;4917381;29;20027;-82
2023/07/16 09:02:32;;;;;;;6.30;1.80;;;;;;;44.48;15.97;99009.38;4934523;29;20030;-79
2023/07/16 09:04:57;;;;;;;5.30;1.67;;;;;;;44.36;16.56;99015.59;4929716;29;20419;-83
2023/07/16 09:07:23;;;;;;;3.60;1.93;;;;;;;44.26;17.30;99008.56;4928548;29;20031;-81
2023/07/16 09:09:58;;;;;;;5.13;2.10;;;;;;;44.17;17.20;99007.78;4926870;29;20063;-84
2023/07/16 09:12:24;;;;;;;5.05;1.90;;;;;;;44.11;17.55;99007.19;4912700;29;20028;-83
2023/07/16 09:14:49;;;;;;;4.55;2.20;;;;;;;44.00;17.82;99006.00;4951827;29;20034;-84
2023/07/16 09:17:20;;;;;;;5.97;2.00;;;;;;;43.84;17.72;99003.00;4929978;29;20031;-82
2023/07/16 09:19:46;;;;;;;6.95;2.10;;;;;;;43.69;17.93;99002.41;4927164;29;20024;-81
2023/07/16 09:22:11;;;;;;;3.23;2.10;;;;;;;43.51;18.11;99007.19;4946036;29;20038;-84
2023/07/16 09:24:37;;;;;;;5.83;2.10;;;;;;;43.23;18.30;99000.50;4943652;29;20456;-80
2023/07/16 09:27:04;;;;;;;14.57;2.10;;;;;;;43.03;18.44;99008.28;4944508;29;20050;-90
2023/07/16 09:29:29;;;;;;;7.32;2.30;;;;;;;42.89;18.82;99007.66;4913012;29;20097;-82
2023/07/16 09:31:59;;;;;;;4.87;2.33;;;;;;;42.74;19.17;99006.22;4945473;29;20036;-82
2023/07/16 09:34:28;;;;;;;4.75;2.40;;;;;;;42.64;19.35;99001.88;4932201;29;20031;-84
2023/07/16 09:36:55;;;;;;;6.88;2.33;;;;;;;42.50;19.36;99007.50;4930028;29;20039;-85
2023/07/16 09:39:20;;;;;;;6.07;2.03;;;;;;;42.37;18.50;99003.81;4943666;28;20024;-79
2023/07/16 09:41:49;;;;;;;11.57;2.67;;;;;;;42.25;18.65;98996.19;4945596;29;20494;-77
2023/07/16 09:44:18;;;;;;;7.32;2.10;;;;;;;41.90;19.39;98990.66;4920532;29;20151;-77
2023/07/16 09:46:44;;;;;;;8.43;2.22;;;;;;;41.76;19.29;98996.25;4921085;29;20027;-76
2023/07/16 09:49:10;;;;;;;4.37;2.23;;;;;;;41.58;19.81;98992.63;4937034;29;20039;-76
2023/07/16 09:51:36;;;;;;;11.20;2.40;;;;;;;41.35;19.94;98980.13;4920482;29;20506;-76
2023/07/16 09:54:02;;;;;;;6.03;2.20;;;;;;;41.29;20.57;98987.66;4933170;29;20122;-75
2023/07/16 09:56:31;;;;;;;7.43;2.20;;;;;;;41.18;20.83;98986.31;4901786;29;20032;-76
2023/07/16 09:58:57;;;;;;;4.30;2.40;;;;;;;41.09;20.66;98971.75;4917908;29;20589;-75
2023/07/16 10:01:22;;;;;;;5.65;2.30;;;;;;;40.98;20.95;98982.19;4930602;29;20039;-76
2023/07/16 10:03:51;;;;;;;7.57;2.70;;;;;;;40.67;20.46;98971.97;4915286;29;20411;-77
2023/07/16 10:06:17;;;;;;;7.95;2.75;;;;;;;40.33;21.08;98968.66;4910443;29;20110;-77
2023/07/16 10:08:49;;;;;;;7.17;2.50;;;;;;;40.23;20.92;98963.44;4901792;29;20051;-78
2023/07/16 10:11:18;;;;;;;6.35;2.25;;;;;;;40.14;21.28;98970.75;4917735;29;20028;-77
2023/07/16 10:13:43;;;;;;;7.80;2.75;;;;;;;40.00;21.42;98965.28;4904751;29;20031;-75
2023/07/16 10:16:11;;;;;;;10.90;2.50;;;;;;;39.87;21.12;98969.66;4895490;29;20597;-78
2023/07/16 10:18:37;;;;;;;5.78;2.70;;;;;;;39.74;20.81;98962.25;4917169;29;20118;-76
2023/07/16 10:21:06;;;;;;;7.37;2.43;;;;;;;39.68;21.19;98958.00;4901579;29;20035;-81
2023/07/16 10:23:42;;;;;;;3.97;2.05;;;;;;;39.57;21.71;98946.50;4889384;29;20042;-76
2023/07/16 10:26:12;;;;;;;8.00;2.50;;;;;;;39.55;21.99;98960.47;4936326;29;20058;-76
2023/07/16 10:28:37;;;;;;;8.70;2.58;;;;;;;39.37;22.37;98959.41;4905237;29;20031;-76
2023/07/16 10:31:03;;;;;;;7.93;2.38;;;;;;;39.29;22.60;98941.00;4904345;29;20078;-76
2023/07/16 10:33:29;;;;;;;4.53;2.25;;;;;;;39.28;22.84;98942.09;4899152;29;20035;-86
2023/07/16 10:35:56;;;;;;;5.18;2.50;;;;;;;39.17;22.82;98943.41;4935590;28;20597;-81
2023/07/16 10:38:21;;;;;;;5.20;2.15;;;;;;;39.12;22.75;98940.78;4910325;28;20066;-82
2023/07/16 10:40:48;;;;;;;5.88;2.45;;;;;;;38.79;23.42;98943.53;4924978;28;20067;-81
2023/07/16 10:43:13;;;;;;;6.35;2.60;;;;;;;38.60;23.44;98935.34;4913251;29;20035;-78
2023/07/16 10:45:39;;;;;;;6.57;2.45;;;;;;;38.55;23.79;98936.25;4927708;29;20051;-79
2023/07/16 10:48:04;;;;;;;7.97;2.72;;;;;;;38.48;23.58;98924.91;4914662;28;20150;-77
2023/07/16 10:50:33;;;;;;;16.98;2.83;;;;;;;38.48;23.54;98931.16;4918838;28;20051;-74
2023/07/16 10:52:58;;;;;;;11.27;2.67;;;;;;;38.42;23.71;98916.00;4935464;28;20169;-78
2023/07/16 10:55:25;;;;;;;15.88;2.45;;;;;;;38.46;24.05;98921.66;4920169;29;20419;-77
2023/07/16 10:57:51;;;;;;;8.38;2.88;;;;;;;38.47;24.02;98921.34;4904303;29;20047;-76
2023/07/16 11:00:17;;;;;;;9.80;2.50;;;;;;;38.48;24.16;98920.25;4888953;29;20472;-76
2023/07/16 11:02:43;;;;;;;4.15;2.55;;;;;;;38.52;24.25;98924.03;4904723;29;20031;-83
2023/07/16 11:05:15;;;;;;;5.95;2.90;;;;;;;38.32;24.41;98913.44;4904624;29;20050;-84
2023/07/16 11:07:47;;;;;;;8.27;2.67;;;;;;;38.32;24.17;98908.00;4937427;29;20063;-78
2023/07/16 11:10:15;;;;;;;7.95;3.00;;;;;;;38.25;24.51;98902.09;4936920;29;20027;-78
2023/07/16 11:12:41;;;;;;;6.47;2.63;;;;;;;38.30;24.70;98896.56;4888243;29;20072;-77
2023/07/16 11:15:08;;;;;;;5.40;2.78;;;;;;;38.23;24.53;98905.13;4896817;29;20036;-78
2023/07/16 11:17:33;;;;;;;4.72;2.60;;;;;;;38.13;25.10;98906.06;4953909;29;20058;-80
2023/07/16 11:19:59;;;;;;;6.50;3.03;;;;;;;38.05;24.87;98903.19;4901626;29;20043;-77
2023/07/16 11:22:26;;;;;;;11.00;2.90;;;;;;;37.85;25.08;98898.84;4928039;29;20052;-77
2023/07/16 11:24:52;;;;;;;7.03;2.83;;;;;;;37.80;25.23;98895.06;4914010;29;20050;-79
2023/07/16 11:27:22;;;;;;;7.63;3.10;;;;;;;37.81;25.56;98890.44;4921840;29;20043;-76
2023/07/16 11:29:55;;;;;;;5.85;2.90;;;;;;;37.90;25.36;98899.56;4906070;29;20435;-77
2023/07/16 11:32:30;;;;;;;11.02;2.80;;;;;;;37.99;25.29;98897.81;4907386;29;20550;-77
2023/07/16 11:34:56;;;;;;;5.65;3.00;;;;;;;37.85;25.33;98893.41;4932305;29;20531;-77
2023/07/16 11:37:22;;;;;;;7.07;2.90;;;;;;;37.79;25.27;98896.16;4922575;29;20043;-78
2023/07/16 11:39:48;;;;;;;7.32;2.70;;;;;;;37.72;25.14;98892.19;4922959;29;20506;-77
2023/07/16 11:42:14;;;;;;;8.52;2.92;;;;;;;37.60;25.57;98892.59;4920868;29;20047;-78
2023/07/16 11:44:39;;;;;;;6.47;2.50;;;;;;;37.55;25.64;98896.19;4898574;29;20130;-82
2023/07/16 11:47:05;;;;;;;6.88;2.65;;;;;;;37.49;25.93;98886.47;4931767;29;20040;-77
2023/07/16 11:49:31;;;;;;;4.28;2.50;;;;;;;37.56;26.19;98889.66;4945533;29;20040;-78
2023/07/16 11:51:58;;;;;;;9.57;2.72;;;;;;;37.63;25.79;98892.00;4898625;29;20047;-76
2023/07/16 11:54:23;;;;;;;;;;;;;;;37.63;26.06;98887.38;4922587;29;20070;-77
2023/07/16 11:56:48;;;;;;;5.03;2.58;;;;;;;37.56;25.72;98884.22;4937471;29;19915;-79
2023/07/16 11:59:16;;;;;;;8.38;3.50;;;;;;;37.47;25.75;98878.59;4923088;29;20035;-84
2023/07/16 12:01:41;;;;;;;10.50;3.28;;;;;;;37.37;25.80;98891.50;4903890;29;20078;-77
2023/07/16 12:04:07;;;;;;;9.40;2.92;;;;;;;37.21;25.55;98888.13;4918437;29;20066;-78
2023/07/16 12:06:32;;;;;;;11.23;3.35;;;;;;;37.25;25.15;98879.13;4903233;29;20079;-80
2023/07/16 12:08:58;;;;;;;9.63;3.10;;;;;;;37.18;25.13;98886.81;4919338;29;20028;-78
2023/07/16 12:11:23;;;;;;;6.63;2.83;;;;;;;37.18;24.97;98884.09;4919206;29;20134;-82
2023/07/16 12:13:49;;;;;;;7.90;3.13;;;;;;;37.24;25.03;98871.25;4903450;29;20095;-82
2023/07/16 12:16:14;;;;;;;9.88;3.15;;;;;;;37.34;25.21;98881.19;4903445;29;20043;-76
2023/07/16 12:18:40;;;;;;;6.95;3.15;;;;;;;37.33;24.84;98883.13;4903278;29;20038;-78
2023/07/16 12:21:06;;;;;;;8.40;3.03;;;;;;;37.29;24.97;98874.72;4920457;28;20539;-83
2023/07/16 12:23:31;;;;;;;10.20;3.75;;;;;;;37.24;25.03;98866.63;4924596;28;20532;-78
2023/07/16 12:25:57;;;;;;;5.68;3.55;;;;;;;37.30;24.96;98872.81;4940562;28;20077;-81
2023/07/16 12:28:22;;;;;;;6.75;3.28;;;;;;;37.41;25.05;98874.31;4955986;28;20042;-81
2023/07/16 12:30:48;;;;;;;6.07;3.13;;;;;;;37.47;25.01;98875.06;4941346;28;20409;-79
2023/07/16 12:33:13;;;;;;;9.50;3.47;;;;;;;37.52;24.94;98869.53;4955865;28;20066;-79
2023/07/16 12:35:39;;;;;;;14.45;3.65;;;;;;;37.58;24.67;98867.56;4940622;28;20034;-79
2023/07/16 12:38:04;;;;;;;7.97;3.72;;;;;;;37.69;24.61;98866.38;4956693;28;20051;-78
2023/07/16 12:40:30;;;;;;;8.70;3.90;;;;;;;37.74;25.09;98865.50;4955589;28;20039;-83
2023/07/16 12:42:56;;;;;;;8.23;3.30;;;;;;;37.75;24.83;98864.38;4924746;28;20038;-77